IN-0014 weather

CLOSED Koirengei Airstrip
Manipur, India

Public forecast

Using degrees Celsius for public forecast. Weather courtesy of forecast.io.

Closest aviation weather report (METAR) to Koirengei Airstrip

Report is more than 6 hours old.

Closest report is Imphal Airport, 6.9 nm (12.8 km) SSW. Retrieved 2020/05/28 09:00 UTC (9 hours ago):

VEIM 280900Z 05004KT 4000 HZ SCT018 BKN100 21/15 Q1010 NOSIG

Closest aviation forecast (TAF) to Koirengei Airstrip

Forecast is more than 12 hours old.

Closest forecast is Imphal Airport, 6.9 nm (12.8 km) SSW. Retrieved 2017/12/28 12:00 UTC (2 years ago):

TAF VEIM 281100Z 2812/2821 06006KT 4000 BR FEW020 BECMG 2815/2817 00000KT 2000 BR